Time;durP1;ratioP1;P1;durP2;ratioP2;P2;SDS_P1;SDS_P2;PMS_P1;PMS_P2;Temp;Humidity;BMP_temperature;BMP_pressure;BME280_temperature;BME280_humidity;BME280_pressure;Samples;Min_cycle;Max_cycle;Signal;HPM_P1;HPM_P2
2021/10/28 00:12:32;;;;;;;49.10;23.20;;;;;;;7.88;79.58;102604.34;1773297;81;21258;-72
2021/10/28 00:15:06;;;;;;;48.25;23.07;;;;;;;7.87;79.54;102584.66;1761888;81;21184;-73
2021/10/28 00:20:12;;;;;;;51.02;26.82;;;;;;;7.88;79.41;102593.28;1773943;81;21243;-73
2021/10/28 00:22:45;;;;;;;51.77;26.52;;;;;;;7.86;79.26;102595.91;1774063;81;21215;-72
2021/10/28 00:25:19;;;;;;;61.88;26.65;;;;;;;7.78;79.08;102593.27;1774173;81;21175;-73
2021/10/28 00:27:52;;;;;;;49.65;25.62;;;;;;;7.69;79.15;102595.30;1774364;79;21163;-77
2021/10/28 00:30:24;;;;;;;48.17;23.20;;;;;;;7.63;79.33;102591.93;1774430;81;21317;-73
2021/10/28 00:32:57;;;;;;;45.55;24.50;;;;;;;7.63;79.42;102591.06;1774141;81;21190;-77
2021/10/28 00:35:31;;;;;;;;;;;;;;;7.64;79.48;102592.77;1776738;81;21857;-72
2021/10/28 00:38:03;;;;;;;52.00;26.15;;;;;;;7.65;79.47;102593.13;1774113;80;20604;-72
2021/10/28 00:40:36;;;;;;;44.58;24.15;;;;;;;7.63;79.40;102579.49;1774171;81;21781;-76
2021/10/28 00:43:08;;;;;;;47.20;23.32;;;;;;;7.59;79.35;102585.06;1773836;81;21274;-72
2021/10/28 00:45:41;;;;;;;61.00;26.97;;;;;;;7.55;79.30;102581.00;1773134;79;21333;-70
2021/10/28 00:48:14;;;;;;;54.95;26.75;;;;;;;7.57;79.50;102580.78;1774044;81;21258;-72
2021/10/28 00:50:49;;;;;;;52.23;27.52;;;;;;;7.60;79.51;102579.03;1774262;81;21396;-71
2021/10/28 00:53:24;;;;;;;53.92;28.02;;;;;;;7.63;79.40;102577.23;1774104;81;21243;-73
2021/10/28 00:55:56;;;;;;;56.48;25.88;;;;;;;7.62;79.25;102578.30;1774338;81;21177;-72
2021/10/28 00:58:29;;;;;;;54.50;25.70;;;;;;;7.57;79.13;102580.27;1774036;81;21155;-72
2021/10/28 01:01:03;;;;;;;58.08;25.32;;;;;;;7.51;79.01;102575.52;1744867;81;21326;-74
2021/10/28 01:03:38;;;;;;;59.25;27.95;;;;;;;7.45;79.06;102577.67;1773902;81;21183;-74
2021/10/28 01:06:12;;;;;;;54.95;28.40;;;;;;;7.42;79.11;102575.28;1774053;81;21819;-75
2021/10/28 01:08:46;;;;;;;53.58;28.52;;;;;;;7.38;79.10;102572.59;1774058;81;21832;-71
2021/10/28 01:11:19;;;;;;;58.68;27.55;;;;;;;7.36;79.26;102575.22;1776809;79;21273;-72
2021/10/28 01:13:51;;;;;;;;;;;;;;;7.34;79.31;102577.33;1779659;81;21290;-72
2021/10/28 01:16:23;;;;;;;58.75;27.25;;;;;;;7.34;79.32;102569.88;1776970;81;20251;-75
2021/10/28 01:18:57;;;;;;;58.63;26.95;;;;;;;7.35;79.68;102573.52;1777150;80;21195;-72
2021/10/28 01:21:29;;;;;;;54.90;27.50;;;;;;;7.35;79.68;102573.52;1777354;81;21341;-73
2021/10/28 01:24:03;;;;;;;62.03;28.98;;;;;;;7.36;79.37;102577.44;1777047;81;21954;-77
2021/10/28 01:26:36;;;;;;;55.98;26.85;;;;;;;7.36;79.32;102581.58;1777142;81;21380;-76
2021/10/28 01:29:29;;;;;;;56.18;26.02;;;;;;;7.35;79.25;102578.49;1776959;81;21186;-74
2021/10/28 01:32:19;;;;;;;53.05;25.92;;;;;;;7.35;79.23;102579.03;1776987;81;21890;-74
2021/10/28 01:34:52;;;;;;;66.42;28.50;;;;;;;7.36;79.30;102580.20;1776913;81;21929;-78
2021/10/28 01:37:24;;;;;;;62.35;27.62;;;;;;;7.36;79.23;102581.58;1776992;81;21180;-73
2021/10/28 01:39:58;;;;;;;60.73;28.12;;;;;;;7.34;79.19;102585.62;1777308;81;21863;-73
2021/10/28 01:42:30;;;;;;;53.73;26.40;;;;;;;7.28;79.10;102581.70;1777189;81;21207;-73
2021/10/28 01:45:03;;;;;;;55.95;25.48;;;;;;;7.24;79.16;102580.91;1777582;81;21844;-72
2021/10/28 01:47:36;;;;;;;49.83;24.07;;;;;;;7.23;79.32;102581.41;1775914;81;21709;-72
2021/10/28 01:50:10;;;;;;;55.98;25.00;;;;;;;7.23;79.42;102581.41;1746041;82;21415;-76
2021/10/28 01:52:42;;;;;;;;;;;;;;;7.24;79.46;102587.27;1750052;78;21375;-74
2021/10/28 01:55:16;;;;;;;52.78;26.65;;;;;;;7.23;79.40;102588.32;1776889;81;20679;-79
2021/10/28 01:57:48;;;;;;;55.37;24.53;;;;;;;7.21;79.49;102590.10;1777353;81;21902;-72
2021/10/28 02:00:23;;;;;;;55.70;23.18;;;;;;;7.20;79.56;102585.63;1777048;79;21977;-75
2021/10/28 02:02:55;;;;;;;;;;;;;;;7.22;79.63;102589.05;1779664;81;21321;-72
2021/10/28 02:05:27;;;;;;;47.75;25.50;;;;;;;7.23;79.67;102591.08;1776974;81;20192;-74
2021/10/28 02:08:00;;;;;;;62.05;25.62;;;;;;;7.26;79.70;102591.77;1777219;81;21329;-72
2021/10/28 02:10:35;;;;;;;55.78;24.87;;;;;;;7.26;79.64;102594.53;1777010;80;21159;-73
2021/10/28 02:13:07;;;;;;;;;;;;;;;7.22;79.49;102592.69;1779640;81;21175;-75
2021/10/28 02:15:40;;;;;;;49.33;24.00;;;;;;;7.20;79.54;102598.90;1776973;81;20278;-76
2021/10/28 02:18:13;;;;;;;62.88;24.72;;;;;;;7.17;79.68;102595.66;1777237;79;21364;-74
2021/10/28 02:20:46;;;;;;;57.17;26.97;;;;;;;7.18;79.86;102589.95;1776070;79;21251;-76
2021/10/28 02:23:18;;;;;;;47.80;23.77;;;;;;;7.21;79.77;102590.10;1746085;82;21182;-74
2021/10/28 02:25:51;;;;;;;61.88;25.02;;;;;;;7.20;79.72;102588.39;1746068;82;21339;-74
2021/10/28 02:28:23;;;;;;;47.00;25.45;;;;;;;7.20;79.76;102589.23;1746156;81;21230;-75
2021/10/28 02:30:58;;;;;;;58.30;25.92;;;;;;;7.16;79.65;102590.69;1746011;81;21330;-73
2021/10/28 02:33:31;;;;;;;50.33;24.75;;;;;;;7.14;79.68;102589.16;1745932;82;21179;-76
2021/10/28 02:36:05;;;;;;;48.52;25.70;;;;;;;7.15;79.78;102592.25;1749069;81;21735;-76
2021/10/28 02:38:37;;;;;;;49.53;26.13;;;;;;;7.17;79.85;102597.05;1746307;82;21190;-73
2021/10/28 02:41:10;;;;;;;50.63;27.00;;;;;;;7.18;79.77;102594.94;1746131;82;21471;-74
2021/10/28 02:43:43;;;;;;;47.50;25.27;;;;;;;7.18;79.66;102596.32;1746560;82;21190;-75
2021/10/28 02:46:16;;;;;;;53.33;24.57;;;;;;;7.17;79.61;102603.95;1746002;81;21429;-74
2021/10/28 02:48:49;;;;;;;50.98;23.47;;;;;;;7.15;79.52;102597.23;1746462;81;21333;-76
2021/10/28 02:51:21;;;;;;;47.48;24.92;;;;;;;7.17;79.65;102601.19;1748078;80;21476;-74
2021/10/28 02:53:53;;;;;;;57.25;27.00;;;;;;;7.19;79.66;102601.33;1727106;80;21642;-75
2021/10/28 02:56:26;;;;;;;64.77;29.60;;;;;;;7.22;79.57;102601.48;1751823;81;21305;-75
2021/10/28 02:58:59;;;;;;;45.33;25.70;;;;;;;7.18;79.40;102605.98;1749879;82;21368;-73
2021/10/28 03:01:31;;;;;;;52.85;25.15;;;;;;;7.14;79.22;102602.42;1748164;82;21206;-73
2021/10/28 03:04:05;;;;;;;62.25;27.75;;;;;;;7.09;79.17;102605.44;1747801;82;21420;-73
2021/10/28 03:06:39;;;;;;;54.20;27.58;;;;;;;7.08;79.42;102607.88;1746506;82;21863;-74
2021/10/28 03:09:16;;;;;;;65.05;30.72;;;;;;;7.11;79.57;102611.11;1748805;81;21225;-73
2021/10/28 03:11:52;;;;;;;58.98;31.35;;;;;;;7.12;79.47;102618.34;1745953;80;21245;-73
2021/10/28 03:14:32;;;;;;;65.30;32.15;;;;;;;7.07;79.42;102615.80;1746015;82;21715;-74
2021/10/28 03:27:51;;;;;;;62.17;32.03;;;;;;;7.00;79.86;102622.63;1746150;82;21846;-74
2021/10/28 03:30:24;;;;;;;63.50;31.25;;;;;;;6.96;79.80;102625.96;1747113;80;21910;-84
2021/10/28 03:32:59;;;;;;;57.45;29.57;;;;;;;6.93;80.04;102620.80;1747252;82;21869;-71
2021/10/28 03:35:31;;;;;;;65.70;29.32;;;;;;;6.92;80.01;102625.99;1776193;76;21179;-77
2021/10/28 03:38:17;;;;;;;60.00;30.03;;;;;;;6.91;79.98;102624.28;1750378;81;21405;-74
2021/10/28 03:54:36;;;;;;;62.15;30.27;;;;;;;6.93;81.22;102629.95;1739321;82;21194;-77
2021/10/28 04:00:10;;;;;;;63.20;37.15;;;;;;;6.89;80.84;102638.27;1739397;82;21362;-77
2021/10/28 04:05:30;;;;;;;59.20;29.00;;;;;;;6.90;80.91;102642.73;1739398;82;21198;-76
2021/10/28 04:28:53;;;;;;;75.00;37.67;;;;;;;7.05;81.12;102659.33;1756454;80;21864;-73
2021/10/28 04:30:25;;;;;;;89.70;45.75;;;;;;;6.96;81.93;102668.76;1776513;79;21824;-75
2021/10/28 04:33:00;;;;;;;80.35;40.30;;;;;;;6.92;82.03;102669.66;1746050;82;21165;-74
2021/10/28 04:35:33;;;;;;;76.75;36.58;;;;;;;6.90;82.17;102671.73;1727233;83;21371;-76
2021/10/28 04:38:05;;;;;;;78.28;38.02;;;;;;;6.90;82.26;102665.37;1735388;82;21739;-75
2021/10/28 04:40:38;;;;;;;72.63;40.03;;;;;;;6.89;82.39;102679.69;1735761;82;21736;-77
2021/10/28 04:43:10;;;;;;;72.17;40.25;;;;;;;6.91;82.46;102678.13;1735510;82;21559;-84
2021/10/28 04:45:43;;;;;;;80.83;41.63;;;;;;;6.91;82.42;102678.96;1735407;82;21328;-75
2021/10/28 04:48:17;;;;;;;94.00;40.83;;;;;;;6.89;82.38;102693.48;1735593;82;21384;-77
2021/10/28 04:50:50;;;;;;;71.07;35.25;;;;;;;6.85;82.42;102699.58;1745617;80;21149;-78
2021/10/28 04:53:23;;;;;;;71.70;36.83;;;;;;;6.85;82.46;102705.09;1776612;80;21172;-77
2021/10/28 04:55:57;;;;;;;68.57;36.60;;;;;;;6.83;82.50;102709.42;1776521;81;21675;-75
2021/10/28 04:58:30;;;;;;;77.05;37.35;;;;;;;6.87;82.62;102711.28;1752223;81;21149;-77
2021/10/28 05:01:04;;;;;;;73.78;36.35;;;;;;;6.89;82.58;102711.97;1776712;81;21880;-75
2021/10/28 05:03:37;;;;;;;59.93;34.43;;;;;;;6.89;82.47;102715.58;1776357;81;21314;-77
2021/10/28 05:06:12;;;;;;;64.25;34.95;;;;;;;6.92;82.44;102715.22;1777001;80;21231;-75
2021/10/28 05:08:44;;;;;;;89.05;48.60;;;;;;;6.94;82.45;102718.64;1776678;81;21390;-73
2021/10/28 05:11:18;;;;;;;75.62;41.42;;;;;;;7.00;82.46;102717.89;1777029;81;21319;-77
2021/10/28 05:13:52;;;;;;;68.67;36.50;;;;;;;7.00;82.32;102715.13;1776572;80;21323;-76
2021/10/28 05:16:25;;;;;;;69.15;35.30;;;;;;;7.04;82.37;102713.72;1776491;80;21859;-74
2021/10/28 05:18:58;;;;;;;74.03;37.10;;;;;;;7.06;82.38;102714.37;1777753;79;21145;-76
2021/10/28 05:21:31;;;;;;;102.03;40.40;;;;;;;7.12;82.44;102721.04;1777062;80;21180;-74
2021/10/28 05:24:05;;;;;;;85.93;40.23;;;;;;;7.17;82.58;102715.81;1798212;80;21389;-75
2021/10/28 05:26:37;;;;;;;74.82;42.48;;;;;;;7.26;82.54;102721.06;1766869;78;22515;-75
2021/10/28 05:29:11;;;;;;;71.83;39.10;;;;;;;7.28;82.30;102727.80;1791721;80;21431;-75
2021/10/28 05:31:45;;;;;;;72.75;35.17;;;;;;;7.30;82.25;102722.41;1793954;80;21329;-75
2021/10/28 05:34:18;;;;;;;77.37;38.17;;;;;;;7.38;82.12;102727.00;1797752;80;21350;-75
2021/10/28 05:36:50;;;;;;;90.00;39.38;;;;;;;7.46;82.10;102731.37;1797887;80;21477;-74
2021/10/28 05:39:24;;;;;;;81.35;39.65;;;;;;;7.56;81.95;102738.87;1797821;78;21801;-75
2021/10/28 05:41:57;;;;;;;83.10;42.33;;;;;;;7.63;81.96;102730.14;1797898;80;21753;-75
2021/10/28 05:44:30;;;;;;;74.55;37.78;;;;;;;7.71;81.72;102734.72;1798022;80;21287;-75
2021/10/28 05:47:02;;;;;;;69.47;37.30;;;;;;;7.79;81.62;102729.92;1788826;80;21383;-75
2021/10/28 05:49:35;;;;;;;65.78;35.15;;;;;;;7.78;81.42;102726.83;1765879;81;21831;-75
2021/10/28 05:52:08;;;;;;;80.40;40.38;;;;;;;7.83;81.46;102734.57;1766097;80;21854;-75
2021/10/28 05:54:43;;;;;;;84.07;39.78;;;;;;;7.84;81.66;102737.12;1763207;80;21233;-74
2021/10/28 05:57:15;;;;;;;88.65;43.00;;;;;;;7.96;81.79;102738.34;1752311;81;21175;-74
2021/10/28 05:59:48;;;;;;;;;;;;;;;8.07;81.81;102750.30;1768561;80;21182;-75
2021/10/28 06:02:22;;;;;;;62.98;34.60;;;;;;;8.11;81.53;102758.56;1759588;80;20536;-79
2021/10/28 06:04:59;;;;;;;80.85;36.70;;;;;;;8.16;81.61;102761.61;1755841;80;22090;-82
2021/10/28 06:07:37;;;;;;;68.72;36.45;;;;;;;8.23;81.61;102757.55;1754132;80;21343;-85
2021/10/28 06:10:16;;;;;;;75.12;39.20;;;;;;;8.31;81.33;102761.06;1742795;80;21170;-83
2021/10/28 06:12:50;;;;;;;78.75;42.98;;;;;;;8.38;81.13;102756.46;1744038;80;21428;-81
2021/10/28 06:15:23;;;;;;;88.17;39.38;;;;;;;8.45;80.99;102758.77;1770712;80;21861;-82
2021/10/28 06:18:11;;;;;;;70.83;37.45;;;;;;;8.53;80.82;102754.52;1761562;80;21451;-82
2021/10/28 06:20:33;;;;;;;68.07;36.48;;;;;;;8.66;80.64;102761.58;1750145;80;21854;-80
2021/10/28 06:23:06;;;;;;;88.47;39.83;;;;;;;8.84;80.50;102761.98;1732138;81;21188;-84
2021/10/28 06:25:39;;;;;;;82.02;39.25;;;;;;;8.96;80.07;102759.00;1743143;79;21408;-84
2021/10/28 06:28:11;;;;;;;83.62;40.00;;;;;;;9.09;79.35;102762.41;1732392;81;21344;-87
2021/10/28 06:30:44;;;;;;;76.22;38.55;;;;;;;9.19;78.81;102758.22;1783506;78;21880;-85
2021/10/28 06:33:21;;;;;;;72.25;37.08;;;;;;;9.35;78.70;102754.29;1856257;77;21358;-86
2021/10/28 06:35:55;;;;;;;73.78;37.28;;;;;;;9.53;78.25;102753.25;1853121;77;21250;-81
2021/10/28 06:38:33;;;;;;;76.33;37.25;;;;;;;9.69;77.69;102759.36;1849250;77;21352;-87
2021/10/28 06:41:05;;;;;;;63.90;36.35;;;;;;;9.86;77.18;102754.33;1823222;77;21154;-81
2021/10/28 06:43:38;;;;;;;68.85;34.53;;;;;;;10.01;76.74;102750.35;1823625;77;21240;-84
2021/10/28 06:46:11;;;;;;;63.73;33.60;;;;;;;10.18;76.04;102750.88;1824189;78;21367;-83
2021/10/28 06:48:44;;;;;;;58.63;30.83;;;;;;;10.23;75.58;102750.60;1824201;77;21288;-93
2021/10/28 06:51:20;;;;;;;69.72;31.65;;;;;;;10.32;75.42;102739.63;1824435;78;21332;-82
2021/10/28 06:57:03;;;;;;;62.53;31.82;;;;;;;10.60;74.58;102740.36;1809913;77;21865;-81
2021/10/28 07:05:00;;;;;;;56.45;30.65;;;;;;;10.89;73.61;102745.51;1791842;80;21308;-83
2021/10/28 07:07:35;;;;;;;59.10;31.85;;;;;;;10.98;73.51;102744.25;1792037;79;21307;-84
2021/10/28 07:10:17;;;;;;;62.25;31.85;;;;;;;11.05;73.29;102752.06;1791151;79;21176;-80
2021/10/28 07:12:53;;;;;;;55.98;32.25;;;;;;;11.11;73.29;102744.77;1791077;79;21734;-82
2021/10/28 07:15:42;;;;;;;56.45;31.77;;;;;;;11.18;72.73;102746.50;1791353;80;21718;-81
2021/10/28 07:18:38;;;;;;;60.60;32.55;;;;;;;11.18;72.35;102749.28;1791158;79;21181;-82
2021/10/28 07:27:10;;;;;;;61.42;31.75;;;;;;;11.20;72.16;102740.73;1788817;80;21207;-82
2021/10/28 07:32:32;;;;;;;67.78;33.80;;;;;;;11.27;71.91;102733.23;1778109;80;20248;-81
2021/10/28 07:35:26;;;;;;;72.05;36.88;;;;;;;11.27;71.70;102729.93;1777744;80;21884;-83
2021/10/28 07:58:04;;;;;;;58.52;35.50;;;;;;;11.55;71.29;102712.98;1778213;80;21734;-81
2021/10/28 08:06:08;;;;;;;67.25;34.20;;;;;;;11.62;70.74;102713.30;1803390;79;21830;-72
2021/10/28 08:17:04;;;;;;;76.02;34.85;;;;;;;11.83;69.42;102711.66;1803176;78;21167;-70
2021/10/28 08:30:27;;;;;;;63.35;31.93;;;;;;;12.08;68.74;102715.41;1803209;78;21173;-73
2021/10/28 08:32:59;;;;;;;57.05;31.50;;;;;;;12.15;68.19;102717.63;1803163;79;21402;-71
2021/10/28 08:35:35;;;;;;;58.68;31.90;;;;;;;12.22;68.09;102717.61;1800034;79;21288;-72
2021/10/28 08:38:07;;;;;;;62.15;32.05;;;;;;;12.27;67.74;102716.38;1803253;78;21312;-71
2021/10/28 08:40:41;;;;;;;49.23;27.35;;;;;;;12.29;67.42;102717.03;1803203;78;21707;-71
2021/10/28 08:43:16;;;;;;;63.42;31.02;;;;;;;12.30;67.50;102707.03;1803181;79;21308;-71
2021/10/28 08:45:53;;;;;;;55.63;30.12;;;;;;;12.33;67.62;102710.78;1803192;79;21343;-71
2021/10/28 08:48:30;;;;;;;52.50;29.60;;;;;;;12.37;67.58;102709.27;1771430;79;21375;-70
2021/10/28 08:51:10;;;;;;;48.70;28.00;;;;;;;12.43;67.36;102710.30;1803181;79;21383;-70
2021/10/28 08:53:58;;;;;;;43.35;26.00;;;;;;;12.49;67.08;102705.23;1799487;79;21313;-71
2021/10/28 09:19:44;;;;;;;39.85;20.82;;;;;;;13.10;63.71;102690.44;1816857;79;21758;-72
2021/10/28 09:25:10;;;;;;;38.65;19.62;;;;;;;13.18;62.71;102694.86;1816783;77;21316;-72
2021/10/28 09:27:49;;;;;;;40.40;20.23;;;;;;;13.19;62.52;102686.27;1814131;79;21174;-71
2021/10/28 09:30:30;;;;;;;35.40;19.98;;;;;;;13.24;62.31;102687.84;1775221;80;21307;-71
2021/10/28 09:33:11;;;;;;;38.80;22.65;;;;;;;13.26;62.14;102683.43;1814224;79;21858;-77
2021/10/28 09:45:16;;;;;;;48.65;27.27;;;;;;;13.31;61.91;102676.59;1816842;79;21260;-72
2021/10/28 09:50:26;;;;;;;53.70;27.48;;;;;;;13.38;62.08;102667.08;1775235;80;21308;-73
2021/10/28 09:53:22;;;;;;;39.27;23.85;;;;;;;13.44;62.14;102675.09;1816760;79;21371;-75
2021/10/28 09:58:31;;;;;;;42.48;23.42;;;;;;;13.57;61.70;102671.59;1816814;79;22177;-73
2021/10/28 10:01:07;;;;;;;45.65;24.43;;;;;;;13.63;61.55;102670.66;1782305;79;21371;-72
2021/10/28 10:03:42;;;;;;;42.75;23.45;;;;;;;13.67;61.38;102669.12;1816792;79;21308;-73
2021/10/28 10:09:18;;;;;;;42.83;22.95;;;;;;;13.78;60.92;102654.92;1775810;81;21857;-81
2021/10/28 10:11:50;;;;;;;45.17;23.92;;;;;;;13.83;60.20;102648.97;1761054;81;21412;-85
2021/10/28 10:14:23;;;;;;;44.45;22.93;;;;;;;13.83;60.20;102648.97;1763440;80;21389;-82
2021/10/28 10:16:56;;;;;;;39.18;22.32;;;;;;;13.91;60.12;102648.64;1761884;81;21971;-83
2021/10/28 10:19:34;;;;;;;38.73;20.02;;;;;;;13.91;60.12;102648.64;1761637;80;21281;-81
2021/10/28 12:53:46;;;;;;;30.45;16.82;;;;;;;15.15;55.58;102502.05;1825762;78;21154;-81
2021/10/28 13:02:47;;;;;;;30.02;16.10;;;;;;;15.16;55.70;102495.35;1823835;78;21375;-79
2021/10/28 13:05:32;;;;;;;32.60;17.15;;;;;;;15.17;55.78;102493.42;1819723;78;21216;-81
2021/10/28 13:50:36;;;;;;;52.23;29.48;;;;;;;15.10;57.67;102493.54;1835699;78;21790;-86
2021/10/28 14:15:37;;;;;;;66.45;31.73;;;;;;;14.46;61.85;102503.50;1832055;76;21161;-77
2021/10/28 15:28:05;;;;;;;89.37;45.50;;;;;;;13.10;68.77;102492.41;1851229;76;21343;-79
2021/10/28 15:30:53;;;;;;;89.10;46.50;;;;;;;13.03;69.04;102486.59;1839693;76;21208;-75
2021/10/28 15:36:09;;;;;;;103.47;48.52;;;;;;;12.93;69.58;102487.10;1850702;76;21804;-80
2021/10/28 16:22:45;;;;;;;179.23;96.40;;;;;;;12.26;72.99;102516.38;1843109;78;21293;-72
2021/10/28 16:25:19;;;;;;;166.03;89.70;;;;;;;12.28;73.16;102518.95;1841178;78;21306;-78
2021/10/28 16:27:54;;;;;;;162.12;85.50;;;;;;;12.25;73.24;102520.78;1802269;78;21331;-75
2021/10/28 16:30:28;;;;;;;148.32;78.50;;;;;;;12.20;73.38;102527.56;1777363;81;21342;-83
2021/10/28 16:33:05;;;;;;;155.55;78.33;;;;;;;12.16;73.54;102520.20;1751415;81;21321;-85
2021/10/28 16:35:39;;;;;;;163.12;85.42;;;;;;;12.12;73.75;102506.97;1777514;78;22049;-84
2021/10/28 16:38:13;;;;;;;169.65;85.85;;;;;;;12.12;74.00;102517.58;1786219;78;21873;-83
2021/10/28 16:40:47;;;;;;;166.03;87.08;;;;;;;12.08;74.09;102512.14;1823285;77;21328;-83
2021/10/28 16:43:20;;;;;;;165.37;85.83;;;;;;;12.03;74.22;102516.12;1814709;78;21305;-83
2021/10/28 16:45:54;;;;;;;178.57;88.52;;;;;;;11.99;74.33;102521.83;1815211;78;21349;-83
2021/10/28 16:48:27;;;;;;;163.72;79.90;;;;;;;11.95;74.45;102521.11;1823968;77;21371;-83
2021/10/28 16:51:00;;;;;;;163.60;84.10;;;;;;;11.94;74.58;102524.98;1796426;80;21305;-82
2021/10/28 16:53:37;;;;;;;171.35;82.97;;;;;;;11.91;74.74;102514.28;1796446;79;21147;-82
2021/10/28 16:56:32;;;;;;;157.05;86.72;;;;;;;11.89;74.79;102521.48;1797527;80;21312;-84
2021/10/28 16:59:15;;;;;;;178.38;88.42;;;;;;;11.87;74.87;102527.80;1796426;80;21392;-84
2021/10/28 17:01:48;;;;;;;172.20;83.95;;;;;;;11.82;74.97;102530.42;1823189;77;21324;-83
2021/10/28 17:04:22;;;;;;;169.00;81.05;;;;;;;11.76;75.03;102538.80;1857482;77;21301;-83
2021/10/28 17:06:54;;;;;;;179.07;84.77;;;;;;;11.72;75.13;102534.22;1856907;77;21177;-83
2021/10/28 17:09:28;;;;;;;177.87;85.53;;;;;;;11.70;75.25;102536.38;1856046;77;21892;-85
2021/10/28 17:12:01;;;;;;;182.30;86.50;;;;;;;11.70;75.31;102537.77;1854284;77;21798;-81
2021/10/28 17:14:39;;;;;;;170.12;86.40;;;;;;;11.68;75.37;102539.90;1846315;77;21288;-81
2021/10/28 17:17:12;;;;;;;180.95;89.87;;;;;;;11.65;75.43;102533.41;1845021;76;21173;-83
2021/10/28 17:19:47;;;;;;;163.60;82.67;;;;;;;11.61;75.49;102536.30;1851317;76;21154;-80
2021/10/28 17:22:20;;;;;;;;;;;;;;;11.58;75.49;102531.69;1848594;75;21850;-84
2021/10/28 17:24:52;;;;;;;178.60;86.47;;;;;;;11.54;75.52;102531.28;1844734;77;20236;-88
2021/10/28 17:27:31;;;;;;;168.37;85.22;;;;;;;11.49;75.57;102545.55;1839843;77;21863;-82
2021/10/28 17:30:07;;;;;;;169.72;87.10;;;;;;;11.47;75.59;102537.95;1845493;77;21303;-81
2021/10/28 17:32:41;;;;;;;184.03;89.35;;;;;;;11.45;75.63;102547.06;1845090;78;21303;-82
2021/10/28 17:35:16;;;;;;;184.95;90.87;;;;;;;11.41;75.56;102541.61;1844820;78;21425;-84
2021/10/28 17:37:49;;;;;;;176.20;86.80;;;;;;;11.36;75.53;102539.50;1845035;77;21887;-79
2021/10/28 17:40:24;;;;;;;169.00;81.35;;;;;;;11.34;75.55;102535.23;1835661;76;21271;-83
2021/10/28 17:42:57;;;;;;;164.90;80.80;;;;;;;11.31;75.59;102530.12;1832490;77;21815;-83
2021/10/28 17:45:35;;;;;;;170.00;86.28;;;;;;;11.30;75.59;102532.03;1835445;76;21273;-81
2021/10/28 17:48:06;;;;;;;167.18;81.63;;;;;;;11.29;75.62;102535.03;1843379;76;21356;-81
2021/10/28 17:50:39;;;;;;;176.35;83.95;;;;;;;11.25;75.56;102531.83;1847299;77;21198;-83
2021/10/28 17:53:12;;;;;;;169.77;83.45;;;;;;;11.24;75.53;102534.83;1840785;76;21269;-82
2021/10/28 17:55:45;;;;;;;169.70;79.87;;;;;;;11.20;75.52;102529.41;1849375;77;21315;-82
2021/10/28 17:58:18;;;;;;;164.20;82.50;;;;;;;11.13;75.43;102525.80;1804097;79;21301;-81
2021/10/28 18:00:54;;;;;;;164.88;80.67;;;;;;;11.03;75.47;102535.99;1763558;77;21961;-80
2021/10/28 18:03:27;;;;;;;178.95;85.05;;;;;;;10.97;75.60;102536.86;1850381;77;21807;-82
2021/10/28 18:06:03;;;;;;;185.85;83.62;;;;;;;10.94;75.71;102540.62;1843476;77;22005;-80
2021/10/28 18:08:36;;;;;;;192.60;88.72;;;;;;;10.93;75.80;102541.14;1844409;77;21297;-83
2021/10/28 18:11:09;;;;;;;191.00;88.00;;;;;;;10.93;75.79;102545.30;1841745;77;21340;-79
2021/10/28 18:13:54;;;;;;;193.60;89.52;;;;;;;10.94;75.80;102542.01;1840933;77;21190;-81
2021/10/28 18:16:30;;;;;;;179.20;82.67;;;;;;;10.96;75.67;102549.03;1801108;78;21888;-80
2021/10/28 18:19:04;;;;;;;186.20;86.37;;;;;;;10.96;75.49;102550.41;1845549;77;21312;-79
2021/10/28 18:21:40;;;;;;;191.18;85.35;;;;;;;10.92;75.38;102558.89;1842130;77;21861;-78
2021/10/28 18:24:14;;;;;;;197.28;88.30;;;;;;;10.91;75.33;102553.55;1801814;78;21312;-80
2021/10/28 18:26:47;;;;;;;206.20;90.72;;;;;;;10.91;75.36;102557.19;1848779;77;21334;-80
2021/10/28 18:29:20;;;;;;;191.88;87.70;;;;;;;10.93;75.23;102560.59;1842300;76;21838;-82
2021/10/28 18:31:55;;;;;;;188.55;86.10;;;;;;;10.93;75.11;102559.73;1845629;76;21655;-82
2021/10/28 18:34:28;;;;;;;169.15;80.65;;;;;;;10.91;74.93;102557.19;1848922;76;21160;-83
2021/10/28 18:37:01;;;;;;;181.37;87.25;;;;;;;10.91;74.91;102547.98;1846211;77;21289;-83
2021/10/28 18:39:35;;;;;;;169.50;83.17;;;;;;;10.91;74.92;102554.41;1849939;77;21347;-82
2021/10/28 18:42:09;;;;;;;189.52;84.28;;;;;;;10.94;74.82;102565.63;1848319;77;21304;-84
2021/10/28 18:44:42;;;;;;;168.87;81.30;;;;;;;10.94;74.71;102559.52;1823864;76;21232;-81
2021/10/28 18:47:16;;;;;;;188.20;81.90;;;;;;;10.92;74.58;102553.85;1802237;78;21461;-80
2021/10/28 18:49:51;;;;;;;166.20;77.97;;;;;;;10.88;74.50;102553.44;1804705;78;21175;-79
2021/10/28 18:52:24;;;;;;;164.60;72.67;;;;;;;10.83;74.51;102549.06;1806197;78;21352;-79
2021/10/28 18:54:58;;;;;;;157.32;74.05;;;;;;;10.83;74.59;102546.28;1807902;78;21792;-78
2021/10/28 18:57:32;;;;;;;175.50;76.95;;;;;;;10.82;74.52;102550.13;1786583;78;21217;-76
2021/10/28 19:00:09;;;;;;;134.87;63.95;;;;;;;10.81;74.65;102552.59;1810215;78;21893;-77
2021/10/28 19:02:45;;;;;;;133.63;63.28;;;;;;;10.81;74.47;102555.90;1816288;78;21391;-80
2021/10/28 19:05:20;;;;;;;134.27;64.70;;;;;;;10.75;74.38;102556.24;1804883;78;21423;-81
2021/10/28 19:07:52;;;;;;;122.25;54.55;;;;;;;10.72;74.44;102559.47;1785944;79;21361;-80
2021/10/28 19:10:25;;;;;;;134.67;60.30;;;;;;;10.70;74.31;102554.64;1773122;80;21344;-80
2021/10/28 19:13:00;;;;;;;116.45;54.50;;;;;;;10.72;74.21;102563.64;1814191;78;21285;-80
2021/10/28 19:15:36;;;;;;;113.80;53.48;;;;;;;10.76;74.35;102565.45;1814350;78;21375;-82
2021/10/28 19:18:13;;;;;;;112.17;51.53;;;;;;;10.81;74.17;102560.06;1800018;78;21312;-80
2021/10/28 19:20:46;;;;;;;109.15;54.40;;;;;;;10.89;74.21;102552.91;1800345;78;21400;-80
2021/10/28 19:23:19;;;;;;;111.95;53.60;;;;;;;10.99;73.95;102561.64;1759471;78;21231;-81
2021/10/28 19:25:53;;;;;;;104.55;51.55;;;;;;;11.02;73.49;102562.61;1809555;78;21190;-81
2021/10/28 19:28:33;;;;;;;105.90;49.93;;;;;;;11.05;73.30;102563.02;1813064;78;21324;-82
2021/10/28 19:31:52;;;;;;;100.92;49.48;;;;;;;11.09;73.17;102555.97;1653218;86;21269;-83
2021/10/28 19:34:38;;;;;;;104.38;48.80;;;;;;;11.10;73.12;102566.02;1719218;78;21182;-80
2021/10/28 19:37:26;;;;;;;104.90;50.63;;;;;;;11.13;73.10;102560.00;1770617;80;21910;-81
2021/10/28 19:48:40;;;;;;;82.60;39.30;;;;;;;11.22;72.48;102558.70;1775939;78;21273;-84
2021/10/28 19:51:19;;;;;;;70.72;35.43;;;;;;;11.17;72.42;102569.63;1817323;78;21411;-88
2021/10/28 19:53:55;;;;;;;69.22;36.28;;;;;;;11.11;72.30;102562.16;1810071;78;21331;-83
2021/10/28 19:56:27;;;;;;;;;;;;;;;11.08;72.29;102561.73;1813825;78;21308;-83
2021/10/28 19:59:17;;;;;;;65.70;35.17;;;;;;;11.06;72.25;102563.34;1827124;78;20348;-81
2021/10/28 20:01:56;;;;;;;75.08;39.10;;;;;;;11.02;72.25;102570.39;1775195;80;21835;-79
2021/10/28 20:13:15;;;;;;;74.95;36.77;;;;;;;10.99;72.73;102569.45;1773215;80;21306;-84
2021/10/28 20:20:45;;;;;;;85.03;37.38;;;;;;;11.05;72.69;102564.41;1788118;79;21222;-83
2021/10/28 20:23:18;;;;;;;73.10;36.03;;;;;;;11.09;72.69;102569.87;1816887;78;21202;-83
2021/10/28 20:25:52;;;;;;;78.07;37.60;;;;;;;11.09;72.46;102566.22;1769081;80;21250;-85
2021/10/28 20:28:26;;;;;;;72.03;35.43;;;;;;;11.04;72.44;102571.05;1770983;80;21388;-80
2021/10/28 20:30:59;;;;;;;62.90;32.50;;;;;;;10.99;72.41;102568.06;1739496;80;21364;-84
2021/10/28 20:33:33;;;;;;;70.87;35.10;;;;;;;10.92;72.51;102572.79;1776771;79;21222;-82
2021/10/28 20:39:02;;;;;;;68.10;35.48;;;;;;;10.82;72.99;102566.80;1788549;78;21345;-81
2021/10/28 20:41:34;;;;;;;80.17;37.58;;;;;;;10.81;73.06;102573.96;1807843;79;21828;-83
2021/10/28 20:44:07;;;;;;;74.30;37.75;;;;;;;10.80;73.14;102566.70;1799063;78;21159;-82